Time;durP1;ratioP1;P1;durP2;ratioP2;P2;SDS_P1;SDS_P2;PMS_P1;PMS_P2;Temp;Humidity;BMP_temperature;BMP_pressure;BME280_temperature;BME280_humidity;BME280_pressure;Samples;Min_cycle;Max_cycle;Signal;HPM_P1;HPM_P2
2021/04/09 00:01:44;;;;;;;21.27;11.40;;;5.30;63.50;;;;;;5053182;28;20176;-81
2021/04/09 00:04:12;;;;;;;17.87;10.43;;;5.10;65.20;;;;;;5035475;28;20239;-80
2021/04/09 00:06:38;;;;;;;17.77;12.20;;;5.10;65.40;;;;;;5053420;28;20263;-80
2021/04/09 00:09:06;;;;;;;16.53;11.73;;;5.10;65.30;;;;;;5035490;28;20224;-81
2021/04/09 00:11:32;;;;;;;16.87;11.37;;;5.20;63.90;;;;;;5053116;28;20176;-81
2021/04/09 00:13:57;;;;;;;14.57;11.00;;;5.10;64.90;;;;;;5053207;28;20173;-80
2021/04/09 00:16:23;;;;;;;15.07;9.60;;;5.10;65.30;;;;;;5035167;28;20182;-80
2021/04/09 00:18:48;;;;;;;15.47;11.10;;;5.20;64.50;;;;;;5035447;28;20209;-80
2021/04/09 00:21:14;;;;;;;15.10;9.97;;;5.10;64.50;;;;;;5053022;28;20191;-80
2021/04/09 00:23:40;;;;;;;16.00;7.87;;;5.20;64.30;;;;;;5053146;28;20192;-80
2021/04/09 00:26:05;;;;;;;17.27;12.37;;;5.20;63.30;;;;;;5035190;28;20194;-80
2021/04/09 00:28:31;;;;;;;14.00;10.07;;;5.20;65.20;;;;;;5052903;28;20192;-80
2021/04/09 00:30:57;;;;;;;17.00;11.90;;;5.20;64.10;;;;;;5052969;28;20191;-80
2021/04/09 00:33:23;;;;;;;14.93;10.33;;;5.10;65.30;;;;;;5056669;28;20211;-80
2021/04/09 00:35:48;;;;;;;19.00;13.33;;;5.10;65.00;;;;;;5056841;28;20712;-81
2021/04/09 00:38:14;;;;;;;15.87;11.70;;;5.10;65.10;;;;;;5056652;28;20223;-81
2021/04/09 00:40:40;;;;;;;22.00;10.77;;;5.10;64.40;;;;;;5056615;28;20205;-80
2021/04/09 00:43:07;;;;;;;14.47;10.50;;;5.00;65.70;;;;;;5056610;28;20199;-81
2021/04/09 00:45:37;;;;;;;19.10;12.30;;;5.10;65.20;;;;;;5057184;28;20255;-80
2021/04/09 00:48:04;;;;;;;22.53;9.93;;;5.10;65.20;;;;;;5056864;28;20199;-81
2021/04/09 00:50:31;;;;;;;11.60;10.00;;;5.10;64.90;;;;;;5056360;28;20168;-80
2021/04/09 00:52:59;;;;;;;15.60;11.37;;;5.10;64.60;;;;;;5056428;28;20704;-80
2021/04/09 00:55:29;;;;;;;12.63;8.97;;;5.20;63.30;;;;;;5056508;28;20225;-80
2021/04/09 00:57:57;;;;;;;23.83;9.67;;;5.10;64.70;;;;;;5056052;28;20212;-81
2021/04/09 01:00:24;;;;;;;15.17;11.30;;;5.10;65.10;;;;;;5056876;28;20641;-81
2021/04/09 01:02:50;;;;;;;16.43;8.73;;;5.10;64.70;;;;;;5056083;28;20264;-80
2021/04/09 01:05:17;;;;;;;12.77;9.17;;;5.00;64.90;;;;;;5056248;28;20176;-80
2021/04/09 01:07:43;;;;;;;14.87;8.87;;;5.10;64.60;;;;;;5038241;28;20189;-80
2021/04/09 01:10:11;;;;;;;19.60;11.50;;;5.10;64.60;;;;;;5056447;28;20574;-80
2021/04/09 01:12:37;;;;;;;15.63;9.30;;;5.10;65.50;;;;;;5056097;28;20278;-80
2021/04/09 01:15:05;;;;;;;20.40;9.67;;;5.00;65.00;;;;;;5038356;28;20673;-80
2021/04/09 01:17:42;;;;;;;13.13;8.60;;;5.00;65.60;;;;;;5055938;28;20278;-80
2021/04/09 01:20:33;;;;;;;11.77;9.57;;;5.00;66.30;;;;;;5038063;28;20160;-80
2021/04/09 01:23:10;;;;;;;15.57;11.97;;;5.00;66.10;;;;;;5038069;28;20211;-80
2021/04/09 01:26:03;;;;;;;20.27;11.77;;;5.00;65.40;;;;;;5055870;28;20152;-81
2021/04/09 01:28:59;;;;;;;13.57;9.43;;;5.00;65.60;;;;;;5055782;28;20279;-80
2021/04/09 01:31:36;;;;;;;16.43;10.60;;;4.90;65.90;;;;;;5055662;28;20234;-80
2021/04/09 01:34:04;;;;;;;31.73;11.43;;;4.90;65.90;;;;;;5055827;28;20161;-80
2021/04/09 01:36:36;;;;;;;20.13;12.57;;;4.90;66.70;;;;;;5055898;28;20185;-80
2021/04/09 01:39:10;;;;;;;15.20;11.43;;;4.90;66.20;;;;;;5055666;28;20204;-80
2021/04/09 01:41:39;;;;;;;20.40;13.00;;;4.90;67.10;;;;;;5056060;28;20152;-80
2021/04/09 01:44:09;;;;;;;17.60;11.47;;;4.80;67.30;;;;;;5037066;28;20216;-80
2021/04/09 01:46:37;;;;;;;14.10;10.27;;;4.90;65.50;;;;;;5055297;28;20180;-80
2021/04/09 01:49:03;;;;;;;10.53;8.27;;;4.80;67.20;;;;;;5055138;28;20271;-80
2021/04/09 01:51:29;;;;;;;16.33;11.33;;;4.90;65.90;;;;;;5055394;28;20255;-80
2021/04/09 01:53:55;;;;;;;20.70;11.70;;;4.90;65.70;;;;;;5037176;28;20665;-80
2021/04/09 01:56:22;;;;;;;17.53;11.40;;;4.90;65.60;;;;;;5055143;28;20179;-80
2021/04/09 01:58:49;;;;;;;15.10;11.60;;;4.90;66.00;;;;;;5055099;28;20191;-80
2021/04/09 02:01:17;;;;;;;13.17;9.70;;;4.90;65.50;;;;;;5055186;28;20172;-80
2021/04/09 02:03:46;;;;;;;18.40;10.50;;;4.90;66.10;;;;;;5054887;28;20712;-80
2021/04/09 02:06:13;;;;;;;12.77;8.67;;;4.90;65.70;;;;;;5055497;28;20197;-80
2021/04/09 02:08:40;;;;;;;18.90;10.60;;;4.80;65.90;;;;;;5037062;28;20205;-80
2021/04/09 02:11:07;;;;;;;13.93;9.80;;;4.80;66.50;;;;;;5055016;28;20535;-80
2021/04/09 02:13:34;;;;;;;21.40;13.67;;;4.90;65.40;;;;;;5036947;28;20180;-80
2021/04/09 02:16:01;;;;;;;17.37;10.23;;;4.80;66.00;;;;;;5054742;28;20668;-80
2021/04/09 02:18:28;;;;;;;17.07;11.80;;;4.80;66.50;;;;;;5054771;28;20188;-80
2021/04/09 02:20:57;;;;;;;16.47;10.57;;;4.80;65.90;;;;;;5054618;28;20401;-80
2021/04/09 02:23:22;;;;;;;13.93;10.50;;;4.80;65.70;;;;;;5036814;28;20202;-80
2021/04/09 02:25:48;;;;;;;15.37;10.43;;;4.80;66.20;;;;;;5054598;28;20174;-80
2021/04/09 02:28:14;;;;;;;17.87;11.93;;;4.70;66.60;;;;;;5036618;28;20594;-80
2021/04/09 02:30:40;;;;;;;13.00;9.00;;;4.80;65.80;;;;;;5036430;28;20250;-80
2021/04/09 02:33:07;;;;;;;10.10;8.60;;;4.70;66.70;;;;;;5036561;28;20652;-80
2021/04/09 02:35:32;;;;;;;19.17;11.70;;;4.70;66.80;;;;;;5054471;28;20254;-80
2021/04/09 02:37:59;;;;;;;16.63;11.87;;;4.70;66.50;;;;;;5036346;28;20253;-80
2021/04/09 02:40:29;;;;;;;13.53;9.47;;;4.70;66.00;;;;;;5036674;28;20224;-80
2021/04/09 02:42:56;;;;;;;15.90;10.53;;;4.70;66.90;;;;;;5054479;28;20582;-80
2021/04/09 02:45:23;;;;;;;14.03;9.23;;;4.60;67.50;;;;;;5054563;28;20169;-80
2021/04/09 02:47:52;;;;;;;18.87;10.67;;;4.60;66.90;;;;;;5036321;28;20192;-80
2021/04/09 02:50:35;;;;;;;16.30;12.67;;;4.60;67.10;;;;;;5054494;28;20305;-80
2021/04/09 02:53:23;;;;;;;15.57;10.57;;;4.50;67.40;;;;;;5054556;28;20162;-80
2021/04/09 02:55:50;;;;;;;22.40;13.93;;;4.50;67.50;;;;;;5035186;28;20186;-80
2021/04/09 02:58:17;;;;;;;15.80;11.70;;;4.60;67.00;;;;;;5053888;28;20270;-80
2021/04/09 03:00:45;;;;;;;13.43;9.03;;;4.60;67.10;;;;;;5054331;28;20542;-80
2021/04/09 03:03:11;;;;;;;11.00;8.70;;;4.40;68.30;;;;;;5054406;28;20194;-80
2021/04/09 03:05:39;;;;;;;22.03;14.23;;;4.40;68.20;;;;;;5053797;28;20203;-80
2021/04/09 03:08:05;;;;;;;20.07;13.20;;;4.40;68.20;;;;;;5035964;28;20191;-80
2021/04/09 03:10:31;;;;;;;13.93;10.00;;;4.40;67.90;;;;;;5053908;28;20163;-80
2021/04/09 03:12:57;;;;;;;11.13;9.00;;;4.50;67.60;;;;;;5035831;28;20179;-80
2021/04/09 03:15:30;;;;;;;14.67;10.00;;;4.40;68.10;;;;;;5054032;28;20181;-80
2021/04/09 03:18:02;;;;;;;17.77;12.77;;;4.40;68.60;;;;;;5035677;28;20207;-80
2021/04/09 03:20:27;;;;;;;17.77;11.57;;;4.40;68.50;;;;;;5053733;28;20192;-80
2021/04/09 03:22:53;;;;;;;14.37;9.30;;;4.40;68.80;;;;;;5053522;28;20283;-80
2021/04/09 03:25:19;;;;;;;19.17;13.67;;;4.40;68.00;;;;;;5053998;28;20534;-80
2021/04/09 03:27:45;;;;;;;15.03;9.77;;;4.30;69.60;;;;;;5035846;28;20200;-80
2021/04/09 03:30:12;;;;;;;16.73;10.97;;;4.30;68.60;;;;;;5053657;28;20183;-80
2021/04/09 03:32:38;;;;;;;15.93;11.90;;;4.30;68.70;;;;;;5035674;28;20228;-80
2021/04/09 03:35:04;;;;;;;24.07;13.77;;;4.30;69.70;;;;;;5053344;28;20191;-80
2021/04/09 03:37:30;;;;;;;14.80;10.00;;;4.40;68.80;;;;;;5053368;28;20189;-80
2021/04/09 03:39:56;;;;;;;24.43;13.70;;;4.30;69.00;;;;;;5035477;28;20664;-80
2021/04/09 03:42:21;;;;;;;22.10;13.87;;;4.40;68.70;;;;;;5035575;28;20648;-80
2021/04/09 03:44:47;;;;;;;26.70;13.03;;;4.40;68.70;;;;;;5053269;28;20200;-80
2021/04/09 03:47:12;;;;;;;14.90;8.17;;;4.30;68.90;;;;;;5035417;28;20172;-80
2021/04/09 03:49:38;;;;;;;21.83;9.67;;;4.30;68.70;;;;;;5053326;28;20168;-80
2021/04/09 03:52:04;;;;;;;18.23;9.93;;;4.30;68.70;;;;;;5035538;28;20179;-80
2021/04/09 03:54:30;;;;;;;12.33;10.33;;;4.40;68.80;;;;;;5053368;28;20261;-80
2021/04/09 03:56:56;;;;;;;22.97;12.77;;;4.30;69.60;;;;;;5053380;28;20537;-80
2021/04/09 03:59:21;;;;;;;19.33;12.27;;;4.40;69.30;;;;;;5035344;28;20196;-80
2021/04/09 04:01:47;;;;;;;14.90;11.10;;;4.40;68.70;;;;;;5053438;28;20179;-80
2021/04/09 04:04:13;;;;;;;20.10;13.67;;;4.30;69.30;;;;;;5053269;28;20613;-80
2021/04/09 04:06:38;;;;;;;13.63;9.53;;;4.30;68.80;;;;;;5056325;28;20179;-80
2021/04/09 04:09:04;;;;;;;17.37;9.97;;;4.30;69.10;;;;;;5057238;28;20198;-80
2021/04/09 04:11:30;;;;;;;21.80;13.23;;;4.30;69.00;;;;;;5057361;28;20652;-80
2021/04/09 04:13:56;;;;;;;21.27;12.63;;;4.30;69.10;;;;;;5039172;28;20178;-80
2021/04/09 04:16:22;;;;;;;12.93;9.80;;;4.40;69.10;;;;;;5057218;28;20649;-80
2021/04/09 04:18:48;;;;;;;13.13;9.67;;;4.40;68.80;;;;;;5038906;28;20194;-80
2021/04/09 04:21:13;;;;;;;23.73;16.30;;;4.50;68.00;;;;;;5057202;28;20190;-80
2021/04/09 04:23:39;;;;;;;17.40;11.93;;;4.40;68.80;;;;;;5057049;28;20263;-80
2021/04/09 04:26:05;;;;;;;13.00;9.47;;;4.40;68.70;;;;;;5057346;28;20644;-80
2021/04/09 04:28:31;;;;;;;14.90;9.83;;;4.40;69.10;;;;;;5039011;28;20699;-80
2021/04/09 04:31:00;;;;;;;15.63;10.13;;;4.30;69.50;;;;;;5038925;28;20263;-80
2021/04/09 04:33:26;;;;;;;15.13;11.67;;;4.40;68.80;;;;;;5057134;28;20184;-80
2021/04/09 04:35:52;;;;;;;17.53;9.37;;;4.30;69.40;;;;;;5039017;28;20186;-80
2021/04/09 04:38:18;;;;;;;13.57;9.90;;;4.30;69.60;;;;;;5038767;28;20561;-80
2021/04/09 04:40:44;;;;;;;23.30;12.77;;;4.40;68.40;;;;;;5057064;28;20179;-80
2021/04/09 04:43:11;;;;;;;12.63;8.57;;;4.40;69.30;;;;;;5056538;28;20207;-80
2021/04/09 04:45:37;;;;;;;20.43;13.47;;;4.40;68.50;;;;;;5038953;28;20648;-80
2021/04/09 04:48:04;;;;;;;20.10;8.30;;;4.40;69.30;;;;;;5038515;28;20226;-80
2021/04/09 04:50:30;;;;;;;16.37;10.10;;;4.40;69.40;;;;;;5056593;28;20253;-80
2021/04/09 04:52:55;;;;;;;23.83;10.67;;;4.30;70.10;;;;;;5056583;28;20198;-80
2021/04/09 04:55:21;;;;;;;20.00;12.07;;;4.40;69.00;;;;;;5056774;28;20171;-80
2021/04/09 04:57:47;;;;;;;21.90;13.77;;;4.40;69.30;;;;;;5056408;28;20195;-80
2021/04/09 05:00:13;;;;;;;15.03;10.50;;;4.30;69.70;;;;;;5056477;28;20593;-80
2021/04/09 05:02:38;;;;;;;16.53;12.20;;;4.30;70.70;;;;;;5056066;28;20261;-80
2021/04/09 05:05:05;;;;;;;17.87;11.30;;;4.30;70.10;;;;;;5038672;28;20263;-80
2021/04/09 05:07:31;;;;;;;25.40;13.50;;;4.40;69.80;;;;;;5056143;28;20255;-80
2021/04/09 05:09:58;;;;;;;20.63;11.77;;;4.30;70.40;;;;;;5038186;28;20186;-80
2021/04/09 05:12:23;;;;;;;15.50;10.57;;;4.30;70.60;;;;;;5055948;28;20314;-80
2021/04/09 05:14:53;;;;;;;16.77;11.03;;;4.30;71.00;;;;;;5038091;28;20262;-80
2021/04/09 05:17:19;;;;;;;15.83;10.63;;;4.30;70.60;;;;;;5055151;28;20179;-80
2021/04/09 05:19:45;;;;;;;17.50;12.00;;;4.30;71.00;;;;;;5038067;28;20171;-80
2021/04/09 05:22:11;;;;;;;18.37;12.57;;;4.40;70.50;;;;;;5037987;28;20706;-80
2021/04/09 05:24:36;;;;;;;16.30;11.13;;;4.40;71.10;;;;;;5055976;28;20211;-80
2021/04/09 05:27:02;;;;;;;19.13;13.20;;;4.50;70.60;;;;;;5055980;28;20172;-80
2021/04/09 05:29:29;;;;;;;15.43;9.73;;;4.40;70.60;;;;;;5055700;28;20170;-80
2021/04/09 05:31:54;;;;;;;17.73;9.20;;;4.40;71.10;;;;;;5055986;28;20205;-80
2021/04/09 05:34:20;;;;;;;18.00;10.53;;;4.50;70.90;;;;;;5055871;28;20203;-81
2021/04/09 05:36:47;;;;;;;20.40;10.93;;;4.60;69.50;;;;;;5055658;28;20172;-80
2021/04/09 05:39:12;;;;;;;23.63;14.97;;;4.50;71.10;;;;;;5055538;28;20218;-81
2021/04/09 05:41:38;;;;;;;26.50;14.73;;;4.50;70.80;;;;;;5056263;28;20238;-80
2021/04/09 05:44:04;;;;;;;18.83;10.23;;;4.50;70.30;;;;;;5055425;28;20203;-80
2021/04/09 05:46:30;;;;;;;15.03;10.87;;;4.50;70.60;;;;;;5055523;28;20276;-80
2021/04/09 05:48:56;;;;;;;19.73;8.43;;;4.50;70.80;;;;;;5055579;28;20668;-80
2021/04/09 05:51:21;;;;;;;17.70;12.17;;;4.60;70.90;;;;;;5037737;28;20278;-80
2021/04/09 05:53:47;;;;;;;20.33;9.60;;;4.50;71.70;;;;;;5055596;28;20179;-80
2021/04/09 05:56:13;;;;;;;18.60;13.90;;;4.60;70.20;;;;;;5055808;28;20175;-80
2021/04/09 05:58:38;;;;;;;18.40;11.20;;;4.60;70.90;;;;;;5037559;28;20200;-80
2021/04/09 06:01:04;;;;;;;22.43;12.57;;;4.70;71.30;;;;;;5037621;28;20328;-80
2021/04/09 06:03:31;;;;;;;17.00;10.20;;;4.80;71.00;;;;;;5055164;28;20547;-80
2021/04/09 06:05:57;;;;;;;23.20;11.70;;;4.80;70.50;;;;;;5055580;28;20176;-80
2021/04/09 06:08:22;;;;;;;16.80;12.87;;;4.80;72.20;;;;;;5055261;28;20188;-80
2021/04/09 06:10:48;;;;;;;21.43;12.87;;;4.80;70.90;;;;;;5055308;28;20171;-80
2021/04/09 06:13:15;;;;;;;16.97;13.00;;;4.90;71.00;;;;;;5054893;28;20171;-80
2021/04/09 06:15:41;;;;;;;11.80;8.37;;;4.90;71.80;;;;;;5037008;28;20648;-80
2021/04/09 06:18:08;;;;;;;15.67;9.60;;;4.90;71.40;;;;;;5054901;28;20199;-80
2021/04/09 06:20:34;;;;;;;17.83;10.40;;;5.00;71.00;;;;;;5055334;28;20644;-80
2021/04/09 06:22:59;;;;;;;14.23;7.90;;;5.00;71.20;;;;;;5036830;28;20291;-80
2021/04/09 06:25:25;;;;;;;18.90;10.83;;;5.00;71.80;;;;;;5054974;28;20535;-81
2021/04/09 06:27:52;;;;;;;15.20;8.03;;;5.10;71.50;;;;;;5036568;28;20191;-80
2021/04/09 06:30:18;;;;;;;19.20;11.40;;;5.20;71.80;;;;;;5036699;28;20168;-80
2021/04/09 06:32:43;;;;;;;16.40;11.83;;;5.20;70.80;;;;;;5054613;28;20168;-81
2021/04/09 06:35:09;;;;;;;15.03;9.10;;;5.30;71.40;;;;;;5036660;28;20172;-81
2021/04/09 06:37:35;;;;;;;17.27;11.73;;;5.30;72.20;;;;;;5037214;28;20200;-81
2021/04/09 06:40:01;;;;;;;11.27;9.10;;;5.30;72.40;;;;;;5055403;28;20185;-82
2021/04/09 06:42:26;;;;;;;19.30;13.07;;;5.30;72.20;;;;;;5036268;28;20168;-82
2021/04/09 06:44:52;;;;;;;12.30;9.60;;;5.40;71.80;;;;;;5054056;28;20222;-82
2021/04/09 06:47:18;;;;;;;11.23;8.13;;;5.50;72.00;;;;;;5054218;28;20171;-82
2021/04/09 06:49:44;;;;;;;15.00;10.27;;;5.50;71.80;;;;;;5054007;28;20221;-83
2021/04/09 06:52:14;;;;;;;18.03;11.77;;;5.50;71.80;;;;;;5036085;28;20591;-82
2021/04/09 06:54:43;;;;;;;20.27;12.17;;;5.60;71.90;;;;;;5053985;28;20636;-82
2021/04/09 06:57:11;;;;;;;18.67;13.77;;;5.60;71.10;;;;;;5053962;28;20203;-79
2021/04/09 06:59:41;;;;;;;18.93;11.20;;;5.70;71.20;;;;;;5054931;28;20250;-81
2021/04/09 07:02:12;;;;;;;18.23;10.13;;;5.70;72.10;;;;;;5036106;28;20560;-80
2021/04/09 07:04:38;;;;;;;22.83;13.70;;;5.70;72.60;;;;;;5053748;28;20239;-80
2021/04/09 07:07:30;;;;;;;16.33;11.63;;;5.80;71.30;;;;;;5035789;28;20172;-80
2021/04/09 07:09:56;;;;;;;21.37;13.03;;;5.80;71.70;;;;;;5050155;28;20696;-80
2021/04/09 07:12:25;;;;;;;15.50;12.37;;;5.80;71.50;;;;;;5035643;28;20172;-80
2021/04/09 07:14:55;;;;;;;13.03;9.20;;;5.90;71.10;;;;;;5053658;28;20164;-80
2021/04/09 07:17:25;;;;;;;15.73;10.50;;;5.90;70.60;;;;;;5053549;28;20172;-80
2021/04/09 07:19:51;;;;;;;14.57;11.23;;;5.90;72.10;;;;;;5035739;28;20213;-80
2021/04/09 07:22:28;;;;;;;23.00;14.57;;;5.90;71.80;;;;;;5053489;28;20642;-80
2021/04/09 07:25:06;;;;;;;19.33;12.70;;;6.00;72.00;;;;;;5053752;28;20226;-80
2021/04/09 07:27:31;;;;;;;22.00;13.27;;;6.00;72.10;;;;;;5053369;28;20245;-80
2021/04/09 07:29:58;;;;;;;16.40;10.23;;;6.10;71.90;;;;;;5053368;28;20251;-80
2021/04/09 07:32:26;;;;;;;17.20;10.63;;;6.20;70.70;;;;;;5035470;28;20176;-80
2021/04/09 07:34:53;;;;;;;12.67;9.83;;;6.30;72.30;;;;;;5053273;28;20651;-80
2021/04/09 07:37:23;;;;;;;11.03;9.77;;;6.30;70.70;;;;;;5035440;28;20641;-80
2021/04/09 07:40:00;;;;;;;21.30;11.27;;;6.30;71.80;;;;;;5053099;28;20185;-80
2021/04/09 07:42:34;;;;;;;20.43;10.73;;;6.50;72.00;;;;;;5035488;28;20184;-81
2021/04/09 07:45:08;;;;;;;15.70;11.93;;;6.60;72.80;;;;;;5053552;28;20219;-80
2021/04/09 07:47:34;;;;;;;22.00;12.70;;;6.60;71.40;;;;;;5053586;28;20626;-80
2021/04/09 07:50:06;;;;;;;24.67;15.23;;;6.70;71.50;;;;;;5053290;28;20179;-81
2021/04/09 07:52:47;;;;;;;21.30;13.07;;;6.70;71.00;;;;;;5053164;28;20244;-80
2021/04/09 07:55:22;;;;;;;20.43;12.60;;;6.90;71.90;;;;;;5053210;28;20168;-81
2021/04/09 07:57:48;;;;;;;19.60;12.83;;;7.00;71.00;;;;;;5052870;28;20732;-80
2021/04/09 08:00:26;;;;;;;15.03;9.03;;;7.00;71.90;;;;;;5035152;28;20723;-81
2021/04/09 08:02:54;;;;;;;22.00;12.67;;;7.00;71.70;;;;;;5035206;28;20193;-80
2021/04/09 08:05:25;;;;;;;18.90;13.37;;;7.10;71.10;;;;;;5035202;28;20241;-81
2021/04/09 08:07:51;;;;;;;19.67;10.20;;;7.20;71.10;;;;;;5053212;28;20219;-80
2021/04/09 08:10:19;;;;;;;18.60;12.10;;;7.30;71.70;;;;;;5052964;28;20227;-80
2021/04/09 08:12:53;;;;;;;22.07;13.03;;;7.30;70.80;;;;;;5035049;28;20651;-81
2021/04/09 08:15:25;;;;;;;14.90;11.83;;;7.30;71.30;;;;;;5035115;28;20609;-81
2021/04/09 08:18:05;;;;;;;18.37;10.07;;;7.40;71.10;;;;;;5052933;28;20218;-80
2021/04/09 08:20:35;;;;;;;23.17;14.13;;;7.50;71.50;;;;;;5053325;28;20155;-80
2021/04/09 08:23:05;;;;;;;15.63;10.40;;;7.50;71.10;;;;;;5052870;28;20679;-81
2021/04/09 08:25:32;;;;;;;16.43;12.17;;;7.60;72.70;;;;;;5034944;28;20179;-81
2021/04/09 08:27:59;;;;;;;15.20;9.57;;;7.60;71.30;;;;;;5052760;28;20199;-81
2021/04/09 08:30:27;;;;;;;18.20;11.70;;;7.70;72.00;;;;;;5034881;28;20215;-81
2021/04/09 08:32:55;;;;;;;13.47;10.10;;;7.80;72.40;;;;;;5052785;28;20222;-81
2021/04/09 08:35:21;;;;;;;25.23;13.37;;;7.90;71.10;;;;;;5052774;28;20640;-81
2021/04/09 08:37:48;;;;;;;12.33;8.63;;;8.00;71.10;;;;;;5034720;28;20222;-80
2021/04/09 08:40:14;;;;;;;18.70;12.37;;;8.00;71.00;;;;;;5034910;28;20172;-81
2021/04/09 08:42:41;;;;;;;18.03;10.50;;;8.10;72.00;;;;;;5052675;28;20222;-81
2021/04/09 08:45:07;;;;;;;18.60;9.63;;;8.10;70.80;;;;;;5052601;28;20205;-81
2021/04/09 08:47:33;;;;;;;17.43;10.53;;;8.20;70.80;;;;;;5053023;28;20610;-85
2021/04/09 08:50:00;;;;;;;18.80;12.43;;;8.20;71.30;;;;;;5035552;28;20187;-86
2021/04/09 08:52:27;;;;;;;13.30;10.53;;;8.30;71.50;;;;;;5053212;28;20540;-86
2021/04/09 08:54:55;;;;;;;19.60;12.93;;;8.40;70.60;;;;;;5056307;28;20176;-86
2021/04/09 08:57:33;;;;;;;19.17;13.07;;;8.50;70.90;;;;;;5038133;28;20176;-86
2021/04/09 09:00:24;;;;;;;22.70;12.57;;;8.60;71.00;;;;;;5056098;28;20588;-85
2021/04/09 09:02:55;;;;;;;17.07;8.70;;;8.50;70.40;;;;;;5038101;28;20176;-85
2021/04/09 09:05:22;;;;;;;19.40;11.53;;;8.40;70.70;;;;;;5055955;28;20250;-85
2021/04/09 09:07:51;;;;;;;17.77;11.70;;;8.40;71.50;;;;;;5038323;28;20188;-85
2021/04/09 09:10:23;;;;;;;17.37;10.83;;;8.50;71.20;;;;;;5038064;28;20171;-85
2021/04/09 09:13:14;;;;;;;17.20;10.97;;;8.50;71.10;;;;;;5037990;28;20176;-85
2021/04/09 09:15:42;;;;;;;15.20;11.23;;;8.60;71.20;;;;;;5037900;28;20192;-85
2021/04/09 09:18:31;;;;;;;18.20;9.93;;;8.70;71.20;;;;;;5037676;28;20199;-86
2021/04/09 09:21:14;;;;;;;17.43;11.47;;;8.70;70.40;;;;;;5056312;28;20168;-86
2021/04/09 09:23:49;;;;;;;22.50;11.93;;;8.70;70.80;;;;;;5055833;28;20196;-86
2021/04/09 09:26:21;;;;;;;23.13;11.37;;;8.70;71.60;;;;;;5055624;28;20168;-85
2021/04/09 09:29:06;;;;;;;15.23;11.17;;;8.80;71.00;;;;;;5037795;28;20196;-85
2021/04/09 09:31:33;;;;;;;23.93;11.63;;;8.80;70.40;;;;;;5037780;28;20637;-86
2021/04/09 09:34:17;;;;;;;14.00;10.17;;;8.80;71.20;;;;;;5037457;28;20172;-85
2021/04/09 09:37:11;;;;;;;18.70;11.43;;;8.70;70.60;;;;;;5037523;28;20559;-85
2021/04/09 09:39:50;;;;;;;19.27;11.73;;;8.70;71.60;;;;;;5037349;28;20248;-86
2021/04/09 09:42:22;;;;;;;23.50;12.33;;;8.70;71.00;;;;;;5037381;28;20194;-86
2021/04/09 09:44:54;;;;;;;19.07;10.67;;;8.70;71.60;;;;;;5055349;28;20603;-86
2021/04/09 09:47:21;;;;;;;18.43;12.27;;;8.70;71.40;;;;;;5037213;28;20167;-85
2021/04/09 09:50:10;;;;;;;18.27;12.17;;;8.70;71.70;;;;;;5037365;28;20341;-85
2021/04/09 09:52:52;;;;;;;19.17;10.87;;;8.70;71.80;;;;;;5037286;28;20633;-85
2021/04/09 09:55:40;;;;;;;20.57;11.77;;;8.70;72.20;;;;;;5055363;28;20233;-85
2021/04/09 09:58:30;;;;;;;22.30;12.73;;;8.70;72.00;;;;;;5054996;28;20188;-85
2021/04/09 10:00:55;;;;;;;18.33;11.53;;;8.70;72.40;;;;;;5037007;28;20169;-85
2021/04/09 10:03:22;;;;;;;26.27;12.87;;;8.70;71.80;;;;;;5036544;28;20207;-85
2021/04/09 10:05:52;;;;;;;22.03;12.10;;;8.70;72.50;;;;;;5036896;28;20172;-85
2021/04/09 10:08:19;;;;;;;24.83;11.97;;;8.80;72.10;;;;;;5036822;28;20188;-85
2021/04/09 10:10:54;;;;;;;17.20;11.43;;;8.90;73.10;;;;;;5054745;28;20657;-85
2021/04/09 10:13:24;;;;;;;14.53;10.27;;;8.90;71.10;;;;;;5036972;28;20179;-85
2021/04/09 10:15:52;;;;;;;19.77;11.77;;;9.00;72.50;;;;;;5054934;28;20172;-86
2021/04/09 10:18:18;;;;;;;18.67;12.17;;;9.10;71.80;;;;;;5054504;28;20188;-86
2021/04/09 10:20:47;;;;;;;16.30;11.80;;;9.20;72.60;;;;;;5036734;28;20267;-86
2021/04/09 10:23:13;;;;;;;20.37;11.13;;;9.10;72.00;;;;;;5036592;28;20215;-86
2021/04/09 10:25:39;;;;;;;16.73;12.27;;;8.80;71.60;;;;;;5054441;28;20171;-86
2021/04/09 10:28:12;;;;;;;15.80;10.83;;;8.80;72.80;;;;;;5054281;28;20191;-85
2021/04/09 10:30:38;;;;;;;18.33;11.50;;;8.70;72.80;;;;;;5054409;28;20160;-86
2021/04/09 10:33:04;;;;;;;16.70;11.57;;;8.70;73.40;;;;;;5036381;28;20542;-85
2021/04/09 10:35:30;;;;;;;15.30;11.10;;;8.60;73.50;;;;;;5036572;28;20545;-86
2021/04/09 10:38:10;;;;;;;15.77;9.80;;;8.60;73.50;;;;;;5036342;28;20200;-85
2021/04/09 10:40:56;;;;;;;17.70;10.37;;;8.50;73.50;;;;;;5054117;28;20167;-86
2021/04/09 10:43:35;;;;;;;21.80;9.93;;;8.60;73.40;;;;;;5053969;28;20199;-86
2021/04/09 10:46:09;;;;;;;14.80;9.67;;;8.50;73.70;;;;;;5036313;28;20709;-86
2021/04/09 10:48:35;;;;;;;15.27;10.87;;;8.60;74.20;;;;;;5036103;28;20282;-86
2021/04/09 10:51:01;;;;;;;16.57;10.90;;;8.60;74.00;;;;;;5036031;28;20199;-86
2021/04/09 10:53:26;;;;;;;13.27;9.73;;;8.60;74.40;;;;;;5036026;28;20187;-86
2021/04/09 10:55:58;;;;;;;15.37;9.80;;;8.60;74.10;;;;;;5036001;28;20176;-85
2021/04/09 10:58:24;;;;;;;14.53;10.53;;;8.50;73.70;;;;;;5035851;28;20565;-85
2021/04/09 11:00:50;;;;;;;14.77;10.37;;;8.60;74.00;;;;;;5053725;28;20172;-85
2021/04/09 11:03:15;;;;;;;15.37;10.47;;;8.60;74.10;;;;;;5053727;28;20197;-85
2021/04/09 11:05:41;;;;;;;15.17;10.53;;;8.50;74.80;;;;;;5053919;28;20168;-85
2021/04/09 11:08:07;;;;;;;21.40;12.27;;;8.50;75.10;;;;;;5053844;28;20195;-85
2021/04/09 11:10:34;;;;;;;19.07;11.63;;;8.60;75.40;;;;;;5053740;28;20227;-85
2021/04/09 11:13:00;;;;;;;17.83;11.60;;;8.60;75.40;;;;;;5035591;28;20182;-85
2021/04/09 11:15:26;;;;;;;23.60;12.27;;;8.60;75.70;;;;;;5053023;28;20633;-85
2021/04/09 11:17:55;;;;;;;1656.45;200.55;;;8.60;75.90;;;;;;5053184;28;20469;-85
2021/04/09 11:20:45;;;;;;;155.75;27.23;;;8.70;75.90;;;;;;5034247;28;20496;-85
2021/04/09 11:23:13;;;;;;;64.90;18.52;;;8.70;75.20;;;;;;5052275;28;20467;-86
2021/04/09 11:25:41;;;;;;;142.57;26.43;;;8.80;74.90;;;;;;5034221;28;20487;-86
2021/04/09 11:28:20;;;;;;;43.55;14.82;;;9.00;75.40;;;;;;5034008;28;20968;-86
2021/04/09 11:31:02;;;;;;;16.57;10.43;;;9.10;75.20;;;;;;5053616;28;20187;-86
2021/04/09 11:33:35;;;;;;;17.13;10.77;;;9.20;74.30;;;;;;5053217;28;20530;-86
2021/04/09 11:36:15;;;;;;;17.83;11.50;;;9.30;74.30;;;;;;5053229;28;20226;-85
2021/04/09 11:38:41;;;;;;;16.67;9.47;;;9.50;74.20;;;;;;5035194;28;20211;-85
2021/04/09 11:41:27;;;;;;;13.70;9.50;;;9.60;73.10;;;;;;5053288;28;20212;-85
2021/04/09 11:43:53;;;;;;;14.73;9.80;;;9.60;72.40;;;;;;5053118;28;20222;-85
2021/04/09 11:46:33;;;;;;;14.67;9.63;;;9.70;72.50;;;;;;5053300;28;20205;-86
2021/04/09 11:49:01;;;;;;;18.00;10.13;;;9.80;72.60;;;;;;5052925;28;20685;-86
2021/04/09 11:51:28;;;;;;;16.60;9.70;;;9.80;72.40;;;;;;5053111;28;20252;-85
2021/04/09 11:54:01;;;;;;;18.70;10.70;;;9.80;72.90;;;;;;5053321;28;20199;-85
2021/04/09 11:56:45;;;;;;;13.93;9.30;;;9.70;72.90;;;;;;5052927;28;20176;-85
2021/04/09 11:59:12;;;;;;;14.47;10.53;;;9.50;73.10;;;;;;5035114;28;20734;-85
2021/04/09 12:01:39;;;;;;;12.73;8.37;;;9.40;72.90;;;;;;5053132;28;20683;-85
2021/04/09 12:04:05;;;;;;;17.77;9.63;;;9.40;73.30;;;;;;5035042;28;20203;-86
2021/04/09 12:06:37;;;;;;;16.83;10.47;;;9.30;72.70;;;;;;5035141;28;20187;-86
2021/04/09 12:09:06;;;;;;;18.83;9.77;;;9.30;72.10;;;;;;5053078;28;20532;-86
2021/04/09 12:11:32;;;;;;;19.87;9.17;;;9.20;74.10;;;;;;5053156;28;20687;-86
2021/04/09 12:13:58;;;;;;;17.57;10.40;;;9.20;72.60;;;;;;5052818;28;20225;-86
2021/04/09 12:16:24;;;;;;;10.80;8.60;;;9.20;74.40;;;;;;5052800;28;20259;-86
2021/04/09 12:18:49;;;;;;;19.97;9.97;;;9.30;73.40;;;;;;5034955;28;20199;-87
2021/04/09 12:21:15;;;;;;;13.97;9.03;;;9.30;73.10;;;;;;5035004;28;20188;-86
2021/04/09 12:23:41;;;;;;;16.60;10.10;;;9.30;73.70;;;;;;5034991;28;20207;-86
2021/04/09 12:26:06;;;;;;;16.97;9.83;;;9.30;74.20;;;;;;5053015;28;20168;-86
2021/04/09 12:28:32;;;;;;;14.63;10.40;;;9.40;73.50;;;;;;5056718;28;20192;-86
2021/04/09 12:30:58;;;;;;;17.17;11.03;;;9.50;72.90;;;;;;5038984;28;20545;-87
2021/04/09 12:33:24;;;;;;;15.60;9.57;;;9.50;73.50;;;;;;5038699;28;20179;-87
2021/04/09 12:35:49;;;;;;;16.07;9.60;;;9.50;72.80;;;;;;5056485;28;20179;-86
2021/04/09 12:38:15;;;;;;;12.87;8.33;;;9.60;72.50;;;;;;5056406;28;20291;-86
2021/04/09 12:40:41;;;;;;;16.83;9.40;;;9.60;71.70;;;;;;5038574;28;20175;-86
2021/04/09 12:43:07;;;;;;;11.80;9.50;;;9.50;72.40;;;;;;5056325;28;20176;-86
2021/04/09 12:45:33;;;;;;;17.10;9.93;;;9.60;73.20;;;;;;5038467;28;20645;-86
2021/04/09 12:47:59;;;;;;;18.90;10.50;;;9.50;71.70;;;;;;5038325;28;20240;-86
2021/04/09 12:50:25;;;;;;;16.57;9.93;;;9.60;72.40;;;;;;5056310;28;20176;-86